sensor_id;sensor_type;location;lat;lon;timestamp;P1;durP1;ratioP1;P2;durP2;ratioP2
77864;SDS011;67061;48.524;9.040;2023-05-09T00:00:50;31.42;;;15.65;;
77864;SDS011;67061;48.524;9.040;2023-05-09T00:03:17;36.38;;;15.65;;
77864;SDS011;67061;48.524;9.040;2023-05-09T00:05:44;26.95;;;15.68;;
77864;SDS011;67061;48.524;9.040;2023-05-09T00:08:11;72.35;;;16.23;;
77864;SDS011;67061;48.524;9.040;2023-05-09T00:10:38;81.30;;;14.88;;
77864;SDS011;67061;48.524;9.040;2023-05-09T00:13:06;77.57;;;16.27;;
77864;SDS011;67061;48.524;9.040;2023-05-09T00:15:33;91.07;;;14.50;;
77864;SDS011;67061;48.524;9.040;2023-05-09T00:18:00;58.95;;;13.10;;
77864;SDS011;67061;48.524;9.040;2023-05-09T00:20:27;48.15;;;12.65;;
77864;SDS011;67061;48.524;9.040;2023-05-09T00:22:54;105.32;;;15.10;;
77864;SDS011;67061;48.524;9.040;2023-05-09T00:25:20;134.75;;;17.00;;
77864;SDS011;67061;48.524;9.040;2023-05-09T00:27:47;70.50;;;14.88;;
77864;SDS011;67061;48.524;9.040;2023-05-09T00:30:16;71.22;;;13.85;;
77864;SDS011;67061;48.524;9.040;2023-05-09T00:32:43;63.10;;;12.30;;
77864;SDS011;67061;48.524;9.040;2023-05-09T00:35:10;55.67;;;13.00;;
77864;SDS011;67061;48.524;9.040;2023-05-09T00:37:36;31.17;;;12.63;;
77864;SDS011;67061;48.524;9.040;2023-05-09T00:40:04;34.78;;;14.13;;
77864;SDS011;67061;48.524;9.040;2023-05-09T00:42:33;26.42;;;13.00;;
77864;SDS011;67061;48.524;9.040;2023-05-09T00:45:00;23.42;;;11.93;;
77864;SDS011;67061;48.524;9.040;2023-05-09T00:47:29;21.65;;;13.50;;
77864;SDS011;67061;48.524;9.040;2023-05-09T00:49:56;25.33;;;11.57;;
77864;SDS011;67061;48.524;9.040;2023-05-09T00:52:24;25.38;;;13.98;;
77864;SDS011;67061;48.524;9.040;2023-05-09T00:54:51;26.15;;;13.50;;
77864;SDS011;67061;48.524;9.040;2023-05-09T00:57:18;24.42;;;12.68;;
77864;SDS011;67061;48.524;9.040;2023-05-09T00:59:45;35.50;;;14.32;;
77864;SDS011;67061;48.524;9.040;2023-05-09T01:02:12;22.80;;;13.00;;
77864;SDS011;67061;48.524;9.040;2023-05-09T01:04:41;26.70;;;14.13;;
77864;SDS011;67061;48.524;9.040;2023-05-09T01:07:09;28.80;;;13.73;;
77864;SDS011;67061;48.524;9.040;2023-05-09T01:09:42;24.73;;;13.35;;
77864;SDS011;67061;48.524;9.040;2023-05-09T01:12:17;20.30;;;11.23;;
77864;SDS011;67061;48.524;9.040;2023-05-09T01:17:26;18.83;;;11.32;;
77864;SDS011;67061;48.524;9.040;2023-05-09T01:20:02;23.10;;;11.68;;
77864;SDS011;67061;48.524;9.040;2023-05-09T01:22:40;20.77;;;12.63;;
77864;SDS011;67061;48.524;9.040;2023-05-09T01:28:05;21.83;;;11.77;;
77864;SDS011;67061;48.524;9.040;2023-05-09T01:30:40;21.65;;;11.48;;
77864;SDS011;67061;48.524;9.040;2023-05-09T01:33:11;24.83;;;12.48;;
77864;SDS011;67061;48.524;9.040;2023-05-09T01:35:42;25.67;;;13.27;;
77864;SDS011;67061;48.524;9.040;2023-05-09T01:38:12;24.70;;;14.18;;
77864;SDS011;67061;48.524;9.040;2023-05-09T01:40:42;33.03;;;12.07;;
77864;SDS011;67061;48.524;9.040;2023-05-09T01:43:12;26.90;;;11.90;;
77864;SDS011;67061;48.524;9.040;2023-05-09T01:45:44;36.42;;;13.38;;
77864;SDS011;67061;48.524;9.040;2023-05-09T01:48:12;44.45;;;14.52;;
77864;SDS011;67061;48.524;9.040;2023-05-09T01:50:40;42.60;;;13.48;;
77864;SDS011;67061;48.524;9.040;2023-05-09T01:53:09;61.53;;;14.15;;
77864;SDS011;67061;48.524;9.040;2023-05-09T01:55:38;59.53;;;14.35;;
77864;SDS011;67061;48.524;9.040;2023-05-09T01:58:05;57.92;;;13.43;;
77864;SDS011;67061;48.524;9.040;2023-05-09T02:00:34;51.80;;;12.55;;
77864;SDS011;67061;48.524;9.040;2023-05-09T02:03:03;54.33;;;12.93;;
77864;SDS011;67061;48.524;9.040;2023-05-09T02:05:31;54.60;;;13.57;;
77864;SDS011;67061;48.524;9.040;2023-05-09T02:07:58;57.92;;;11.80;;
77864;SDS011;67061;48.524;9.040;2023-05-09T02:10:26;51.20;;;13.50;;
77864;SDS011;67061;48.524;9.040;2023-05-09T02:12:54;47.88;;;12.60;;
77864;SDS011;67061;48.524;9.040;2023-05-09T02:15:21;58.30;;;14.10;;
77864;SDS011;67061;48.524;9.040;2023-05-09T02:17:48;49.60;;;13.77;;
77864;SDS011;67061;48.524;9.040;2023-05-09T02:20:16;55.67;;;14.13;;
77864;SDS011;67061;48.524;9.040;2023-05-09T02:22:43;48.53;;;13.50;;
77864;SDS011;67061;48.524;9.040;2023-05-09T02:25:11;52.85;;;13.65;;
77864;SDS011;67061;48.524;9.040;2023-05-09T02:27:40;45.53;;;11.88;;
77864;SDS011;67061;48.524;9.040;2023-05-09T02:30:11;35.13;;;13.05;;
77864;SDS011;67061;48.524;9.040;2023-05-09T02:32:40;47.25;;;12.23;;
77864;SDS011;67061;48.524;9.040;2023-05-09T02:37:38;24.10;;;11.75;;
77864;SDS011;67061;48.524;9.040;2023-05-09T02:40:05;22.95;;;10.93;;
77864;SDS011;67061;48.524;9.040;2023-05-09T02:42:34;47.28;;;13.30;;
77864;SDS011;67061;48.524;9.040;2023-05-09T02:45:01;26.52;;;12.55;;
77864;SDS011;67061;48.524;9.040;2023-05-09T02:47:28;26.20;;;13.23;;
77864;SDS011;67061;48.524;9.040;2023-05-09T02:49:55;32.72;;;12.90;;
77864;SDS011;67061;48.524;9.040;2023-05-09T02:52:23;23.63;;;12.07;;
77864;SDS011;67061;48.524;9.040;2023-05-09T02:54:51;28.90;;;11.80;;
77864;SDS011;67061;48.524;9.040;2023-05-09T02:57:19;26.27;;;11.90;;
77864;SDS011;67061;48.524;9.040;2023-05-09T02:59:46;28.02;;;11.52;;
77864;SDS011;67061;48.524;9.040;2023-05-09T03:02:13;25.70;;;10.98;;
77864;SDS011;67061;48.524;9.040;2023-05-09T03:04:40;23.10;;;12.80;;
77864;SDS011;67061;48.524;9.040;2023-05-09T03:07:07;27.45;;;12.45;;
77864;SDS011;67061;48.524;9.040;2023-05-09T03:09:34;28.75;;;13.32;;
77864;SDS011;67061;48.524;9.040;2023-05-09T03:12:02;22.60;;;13.23;;
77864;SDS011;67061;48.524;9.040;2023-05-09T03:14:29;21.63;;;10.70;;
77864;SDS011;67061;48.524;9.040;2023-05-09T03:16:57;24.50;;;11.43;;
77864;SDS011;67061;48.524;9.040;2023-05-09T03:19:24;25.00;;;12.27;;
77864;SDS011;67061;48.524;9.040;2023-05-09T03:21:51;21.33;;;10.75;;
77864;SDS011;67061;48.524;9.040;2023-05-09T03:24:18;20.00;;;10.60;;
77864;SDS011;67061;48.524;9.040;2023-05-09T03:26:46;19.15;;;9.35;;
77864;SDS011;67061;48.524;9.040;2023-05-09T03:29:15;31.05;;;8.93;;
77864;SDS011;67061;48.524;9.040;2023-05-09T03:31:41;28.40;;;11.38;;
77864;SDS011;67061;48.524;9.040;2023-05-09T03:34:08;20.25;;;10.63;;
77864;SDS011;67061;48.524;9.040;2023-05-09T03:36:39;21.65;;;10.75;;
77864;SDS011;67061;48.524;9.040;2023-05-09T03:39:06;23.63;;;12.57;;
77864;SDS011;67061;48.524;9.040;2023-05-09T03:41:34;23.50;;;11.02;;
77864;SDS011;67061;48.524;9.040;2023-05-09T03:44:01;20.40;;;11.13;;
77864;SDS011;67061;48.524;9.040;2023-05-09T03:46:30;21.92;;;11.02;;
77864;SDS011;67061;48.524;9.040;2023-05-09T03:51:24;18.90;;;10.30;;
77864;SDS011;67061;48.524;9.040;2023-05-09T03:53:51;17.70;;;8.73;;
77864;SDS011;67061;48.524;9.040;2023-05-09T03:56:18;17.52;;;8.77;;
77864;SDS011;67061;48.524;9.040;2023-05-09T03:58:45;19.25;;;9.90;;
77864;SDS011;67061;48.524;9.040;2023-05-09T04:01:11;21.10;;;9.65;;
77864;SDS011;67061;48.524;9.040;2023-05-09T04:03:40;44.15;;;9.38;;
77864;SDS011;67061;48.524;9.040;2023-05-09T04:06:07;19.20;;;8.63;;
77864;SDS011;67061;48.524;9.040;2023-05-09T04:08:34;56.75;;;9.13;;
77864;SDS011;67061;48.524;9.040;2023-05-09T04:11:01;51.08;;;9.30;;
77864;SDS011;67061;48.524;9.040;2023-05-09T04:13:28;19.23;;;9.05;;
77864;SDS011;67061;48.524;9.040;2023-05-09T04:15:55;21.55;;;8.30;;
77864;SDS011;67061;48.524;9.040;2023-05-09T04:18:22;18.63;;;9.35;;
77864;SDS011;67061;48.524;9.040;2023-05-09T04:20:51;20.00;;;10.73;;
77864;SDS011;67061;48.524;9.040;2023-05-09T04:23:18;20.00;;;9.32;;
77864;SDS011;67061;48.524;9.040;2023-05-09T04:25:44;15.88;;;8.50;;
77864;SDS011;67061;48.524;9.040;2023-05-09T04:28:11;18.05;;;8.50;;
77864;SDS011;67061;48.524;9.040;2023-05-09T04:30:38;17.05;;;10.43;;
77864;SDS011;67061;48.524;9.040;2023-05-09T04:33:05;19.30;;;8.98;;
77864;SDS011;67061;48.524;9.040;2023-05-09T04:35:32;16.23;;;8.32;;
77864;SDS011;67061;48.524;9.040;2023-05-09T04:38:00;18.25;;;8.63;;
77864;SDS011;67061;48.524;9.040;2023-05-09T04:40:28;15.23;;;8.68;;
77864;SDS011;67061;48.524;9.040;2023-05-09T04:42:56;15.85;;;9.35;;
77864;SDS011;67061;48.524;9.040;2023-05-09T04:45:23;17.73;;;9.80;;
77864;SDS011;67061;48.524;9.040;2023-05-09T04:47:50;17.10;;;9.77;;
77864;SDS011;67061;48.524;9.040;2023-05-09T04:50:17;16.63;;;9.68;;
77864;SDS011;67061;48.524;9.040;2023-05-09T04:52:44;17.52;;;10.75;;
77864;SDS011;67061;48.524;9.040;2023-05-09T04:55:12;17.17;;;9.02;;
77864;SDS011;67061;48.524;9.040;2023-05-09T04:57:39;15.98;;;8.68;;
77864;SDS011;67061;48.524;9.040;2023-05-09T05:00:06;15.73;;;8.48;;
77864;SDS011;67061;48.524;9.040;2023-05-09T05:02:35;17.23;;;10.20;;
77864;SDS011;67061;48.524;9.040;2023-05-09T05:05:03;17.00;;;9.93;;
77864;SDS011;67061;48.524;9.040;2023-05-09T05:07:30;18.90;;;10.38;;
77864;SDS011;67061;48.524;9.040;2023-05-09T05:09:57;17.95;;;10.65;;
77864;SDS011;67061;48.524;9.040;2023-05-09T05:12:25;16.92;;;9.73;;
77864;SDS011;67061;48.524;9.040;2023-05-09T05:14:52;20.35;;;11.55;;
77864;SDS011;67061;48.524;9.040;2023-05-09T05:17:19;18.00;;;8.93;;
77864;SDS011;67061;48.524;9.040;2023-05-09T05:19:46;20.83;;;10.90;;
77864;SDS011;67061;48.524;9.040;2023-05-09T05:22:13;20.88;;;13.50;;
77864;SDS011;67061;48.524;9.040;2023-05-09T05:24:40;17.55;;;11.15;;
77864;SDS011;67061;48.524;9.040;2023-05-09T05:27:07;20.42;;;12.82;;
77864;SDS011;67061;48.524;9.040;2023-05-09T05:29:35;18.92;;;10.68;;
77864;SDS011;67061;48.524;9.040;2023-05-09T05:32:02;19.92;;;11.30;;
77864;SDS011;67061;48.524;9.040;2023-05-09T05:34:29;18.23;;;10.68;;
77864;SDS011;67061;48.524;9.040;2023-05-09T05:36:56;18.55;;;10.95;;
77864;SDS011;67061;48.524;9.040;2023-05-09T05:39:23;18.33;;;12.52;;
77864;SDS011;67061;48.524;9.040;2023-05-09T05:41:50;17.92;;;10.35;;
77864;SDS011;67061;48.524;9.040;2023-05-09T05:44:17;18.92;;;10.95;;
77864;SDS011;67061;48.524;9.040;2023-05-09T05:46:45;21.48;;;11.45;;
77864;SDS011;67061;48.524;9.040;2023-05-09T05:49:12;19.33;;;12.70;;
77864;SDS011;67061;48.524;9.040;2023-05-09T05:51:39;23.00;;;12.07;;
77864;SDS011;67061;48.524;9.040;2023-05-09T05:54:06;20.70;;;11.70;;
77864;SDS011;67061;48.524;9.040;2023-05-09T05:56:33;21.95;;;13.52;;
77864;SDS011;67061;48.524;9.040;2023-05-09T05:59:00;22.20;;;12.30;;
77864;SDS011;67061;48.524;9.040;2023-05-09T06:01:27;19.33;;;11.43;;
77864;SDS011;67061;48.524;9.040;2023-05-09T06:03:55;19.15;;;11.35;;
77864;SDS011;67061;48.524;9.040;2023-05-09T06:06:22;18.02;;;12.48;;
77864;SDS011;67061;48.524;9.040;2023-05-09T06:08:49;19.10;;;13.35;;
77864;SDS011;67061;48.524;9.040;2023-05-09T06:11:17;19.13;;;11.57;;
77864;SDS011;67061;48.524;9.040;2023-05-09T06:13:44;18.20;;;13.00;;
77864;SDS011;67061;48.524;9.040;2023-05-09T06:16:11;16.90;;;10.90;;
77864;SDS011;67061;48.524;9.040;2023-05-09T06:18:38;17.95;;;13.82;;
77864;SDS011;67061;48.524;9.040;2023-05-09T06:21:06;16.35;;;10.77;;
77864;SDS011;67061;48.524;9.040;2023-05-09T06:23:34;16.27;;;11.07;;
77864;SDS011;67061;48.524;9.040;2023-05-09T06:26:01;16.60;;;10.68;;
77864;SDS011;67061;48.524;9.040;2023-05-09T06:28:28;17.73;;;12.60;;
77864;SDS011;67061;48.524;9.040;2023-05-09T06:30:55;17.38;;;13.25;;
77864;SDS011;67061;48.524;9.040;2023-05-09T06:33:22;19.33;;;14.27;;
77864;SDS011;67061;48.524;9.040;2023-05-09T06:35:49;16.92;;;11.18;;
77864;SDS011;67061;48.524;9.040;2023-05-09T06:38:18;18.23;;;11.35;;
77864;SDS011;67061;48.524;9.040;2023-05-09T06:40:44;17.05;;;11.43;;
77864;SDS011;67061;48.524;9.040;2023-05-09T06:43:11;17.67;;;11.88;;
77864;SDS011;67061;48.524;9.040;2023-05-09T06:45:38;18.95;;;12.20;;
77864;SDS011;67061;48.524;9.040;2023-05-09T06:48:05;17.42;;;11.23;;
77864;SDS011;67061;48.524;9.040;2023-05-09T06:50:32;18.15;;;13.63;;
77864;SDS011;67061;48.524;9.040;2023-05-09T06:52:59;20.67;;;12.13;;
77864;SDS011;67061;48.524;9.040;2023-05-09T06:55:27;19.05;;;11.95;;
77864;SDS011;67061;48.524;9.040;2023-05-09T06:57:54;19.02;;;13.93;;
77864;SDS011;67061;48.524;9.040;2023-05-09T07:00:21;18.55;;;13.65;;
77864;SDS011;67061;48.524;9.040;2023-05-09T07:02:48;20.58;;;13.02;;
77864;SDS011;67061;48.524;9.040;2023-05-09T07:05:15;16.70;;;12.85;;
77864;SDS011;67061;48.524;9.040;2023-05-09T07:07:42;16.52;;;12.05;;
77864;SDS011;67061;48.524;9.040;2023-05-09T07:10:10;16.42;;;12.75;;
77864;SDS011;67061;48.524;9.040;2023-05-09T07:12:38;14.48;;;10.73;;
77864;SDS011;67061;48.524;9.040;2023-05-09T07:15:06;16.15;;;11.68;;
77864;SDS011;67061;48.524;9.040;2023-05-09T07:17:33;15.13;;;11.32;;
77864;SDS011;67061;48.524;9.040;2023-05-09T07:20:00;15.60;;;10.70;;
77864;SDS011;67061;48.524;9.040;2023-05-09T07:22:28;17.75;;;12.63;;
77864;SDS011;67061;48.524;9.040;2023-05-09T07:24:55;14.77;;;10.57;;
77864;SDS011;67061;48.524;9.040;2023-05-09T07:27:22;14.95;;;10.65;;
77864;SDS011;67061;48.524;9.040;2023-05-09T07:29:58;15.00;;;12.20;;
77864;SDS011;67061;48.524;9.040;2023-05-09T07:32:25;13.88;;;10.77;;
77864;SDS011;67061;48.524;9.040;2023-05-09T07:34:52;17.55;;;12.80;;
77864;SDS011;67061;48.524;9.040;2023-05-09T07:37:19;14.73;;;11.98;;
77864;SDS011;67061;48.524;9.040;2023-05-09T07:39:46;16.05;;;13.38;;
77864;SDS011;67061;48.524;9.040;2023-05-09T07:42:14;16.40;;;12.13;;
77864;SDS011;67061;48.524;9.040;2023-05-09T07:44:41;17.02;;;12.43;;
77864;SDS011;67061;48.524;9.040;2023-05-09T07:47:09;17.30;;;13.98;;
77864;SDS011;67061;48.524;9.040;2023-05-09T07:49:36;14.85;;;10.90;;
77864;SDS011;67061;48.524;9.040;2023-05-09T07:52:04;16.35;;;11.73;;
77864;SDS011;67061;48.524;9.040;2023-05-09T07:54:31;14.63;;;10.82;;
77864;SDS011;67061;48.524;9.040;2023-05-09T07:56:58;17.02;;;12.48;;
77864;SDS011;67061;48.524;9.040;2023-05-09T07:59:25;16.30;;;13.02;;
77864;SDS011;67061;48.524;9.040;2023-05-09T08:01:52;13.30;;;9.90;;
77864;SDS011;67061;48.524;9.040;2023-05-09T08:04:21;15.25;;;11.38;;
77864;SDS011;67061;48.524;9.040;2023-05-09T08:06:48;12.88;;;10.35;;
77864;SDS011;67061;48.524;9.040;2023-05-09T08:09:15;12.90;;;10.50;;
77864;SDS011;67061;48.524;9.040;2023-05-09T08:11:42;14.82;;;10.25;;
77864;SDS011;67061;48.524;9.040;2023-05-09T08:14:09;13.90;;;10.85;;
77864;SDS011;67061;48.524;9.040;2023-05-09T08:16:36;12.43;;;9.73;;
77864;SDS011;67061;48.524;9.040;2023-05-09T08:19:03;14.73;;;10.48;;
77864;SDS011;67061;48.524;9.040;2023-05-09T08:21:32;14.32;;;11.13;;
77864;SDS011;67061;48.524;9.040;2023-05-09T08:24:00;15.02;;;10.52;;
77864;SDS011;67061;48.524;9.040;2023-05-09T08:26:27;12.70;;;8.98;;
77864;SDS011;67061;48.524;9.040;2023-05-09T08:28:54;12.23;;;9.57;;
77864;SDS011;67061;48.524;9.040;2023-05-09T08:31:22;14.80;;;12.13;;
77864;SDS011;67061;48.524;9.040;2023-05-09T08:33:48;12.38;;;8.40;;
77864;SDS011;67061;48.524;9.040;2023-05-09T08:36:15;13.60;;;10.57;;
77864;SDS011;67061;48.524;9.040;2023-05-09T08:38:44;10.48;;;8.23;;
77864;SDS011;67061;48.524;9.040;2023-05-09T08:41:11;11.60;;;9.75;;
77864;SDS011;67061;48.524;9.040;2023-05-09T08:43:37;12.32;;;10.55;;
77864;SDS011;67061;48.524;9.040;2023-05-09T08:46:06;14.05;;;10.75;;
77864;SDS011;67061;48.524;9.040;2023-05-09T08:48:35;11.95;;;9.73;;
77864;SDS011;67061;48.524;9.040;2023-05-09T08:51:02;10.57;;;7.43;;
77864;SDS011;67061;48.524;9.040;2023-05-09T08:53:30;12.13;;;9.10;;
77864;SDS011;67061;48.524;9.040;2023-05-09T08:55:58;12.80;;;9.52;;
77864;SDS011;67061;48.524;9.040;2023-05-09T08:58:26;13.27;;;9.70;;
77864;SDS011;67061;48.524;9.040;2023-05-09T09:00:54;15.65;;;11.73;;
77864;SDS011;67061;48.524;9.040;2023-05-09T09:03:22;13.40;;;10.45;;
77864;SDS011;67061;48.524;9.040;2023-05-09T09:05:50;13.10;;;9.30;;
77864;SDS011;67061;48.524;9.040;2023-05-09T09:08:18;11.82;;;8.90;;
77864;SDS011;67061;48.524;9.040;2023-05-09T09:10:47;12.63;;;10.13;;
77864;SDS011;67061;48.524;9.040;2023-05-09T09:13:15;10.77;;;8.43;;
77864;SDS011;67061;48.524;9.040;2023-05-09T09:15:44;11.77;;;10.30;;
77864;SDS011;67061;48.524;9.040;2023-05-09T09:18:15;12.50;;;8.23;;
77864;SDS011;67061;48.524;9.040;2023-05-09T09:20:45;10.68;;;7.28;;
77864;SDS011;67061;48.524;9.040;2023-05-09T09:23:16;10.63;;;7.95;;
77864;SDS011;67061;48.524;9.040;2023-05-09T09:25:45;8.25;;;6.85;;
77864;SDS011;67061;48.524;9.040;2023-05-09T09:28:12;9.63;;;6.35;;
77864;SDS011;67061;48.524;9.040;2023-05-09T09:30:43;8.93;;;7.60;;
77864;SDS011;67061;48.524;9.040;2023-05-09T09:33:22;9.02;;;8.07;;
77864;SDS011;67061;48.524;9.040;2023-05-09T09:35:50;7.28;;;5.70;;
77864;SDS011;67061;48.524;9.040;2023-05-09T09:38:18;9.20;;;7.53;;
77864;SDS011;67061;48.524;9.040;2023-05-09T09:40:48;7.50;;;5.95;;
77864;SDS011;67061;48.524;9.040;2023-05-09T09:43:18;6.90;;;4.72;;
77864;SDS011;67061;48.524;9.040;2023-05-09T09:45:48;6.38;;;5.70;;
77864;SDS011;67061;48.524;9.040;2023-05-09T09:48:15;7.18;;;5.50;;
77864;SDS011;67061;48.524;9.040;2023-05-09T09:50:42;8.18;;;6.15;;
77864;SDS011;67061;48.524;9.040;2023-05-09T09:53:12;5.40;;;4.60;;
77864;SDS011;67061;48.524;9.040;2023-05-09T09:55:39;6.47;;;5.60;;
77864;SDS011;67061;48.524;9.040;2023-05-09T09:58:16;6.18;;;4.90;;
77864;SDS011;67061;48.524;9.040;2023-05-09T10:00:45;5.93;;;5.20;;
77864;SDS011;67061;48.524;9.040;2023-05-09T10:03:15;4.72;;;3.72;;
77864;SDS011;67061;48.524;9.040;2023-05-09T10:05:42;7.40;;;5.55;;
77864;SDS011;67061;48.524;9.040;2023-05-09T10:08:09;5.30;;;4.80;;
77864;SDS011;67061;48.524;9.040;2023-05-09T10:10:36;5.70;;;4.57;;
77864;SDS011;67061;48.524;9.040;2023-05-09T10:13:04;7.88;;;4.90;;
77864;SDS011;67061;48.524;9.040;2023-05-09T10:15:33;6.00;;;4.32;;
77864;SDS011;67061;48.524;9.040;2023-05-09T10:18:01;8.80;;;6.05;;
77864;SDS011;67061;48.524;9.040;2023-05-09T10:20:30;5.40;;;4.43;;
77864;SDS011;67061;48.524;9.040;2023-05-09T10:23:00;7.00;;;6.30;;
77864;SDS011;67061;48.524;9.040;2023-05-09T10:25:31;6.18;;;5.22;;
77864;SDS011;67061;48.524;9.040;2023-05-09T10:28:03;6.97;;;5.95;;
77864;SDS011;67061;48.524;9.040;2023-05-09T10:30:38;4.82;;;3.47;;
77864;SDS011;67061;48.524;9.040;2023-05-09T10:33:08;6.28;;;5.35;;
77864;SDS011;67061;48.524;9.040;2023-05-09T10:35:41;5.72;;;5.05;;
77864;SDS011;67061;48.524;9.040;2023-05-09T10:38:11;5.90;;;3.75;;
77864;SDS011;67061;48.524;9.040;2023-05-09T10:40:38;3.90;;;2.97;;
77864;SDS011;67061;48.524;9.040;2023-05-09T10:43:06;5.43;;;3.42;;
77864;SDS011;67061;48.524;9.040;2023-05-09T10:45:33;5.13;;;3.63;;
77864;SDS011;67061;48.524;9.040;2023-05-09T10:48:00;6.65;;;3.70;;
77864;SDS011;67061;48.524;9.040;2023-05-09T10:50:32;3.83;;;3.10;;
77864;SDS011;67061;48.524;9.040;2023-05-09T10:53:05;4.10;;;2.97;;
77864;SDS011;67061;48.524;9.040;2023-05-09T10:55:36;4.00;;;3.60;;
77864;SDS011;67061;48.524;9.040;2023-05-09T10:58:17;3.95;;;3.05;;
77864;SDS011;67061;48.524;9.040;2023-05-09T11:00:46;5.32;;;3.83;;
77864;SDS011;67061;48.524;9.040;2023-05-09T11:03:13;5.07;;;3.58;;
77864;SDS011;67061;48.524;9.040;2023-05-09T11:05:40;4.72;;;2.92;;
77864;SDS011;67061;48.524;9.040;2023-05-09T11:08:18;9.05;;;5.00;;
77864;SDS011;67061;48.524;9.040;2023-05-09T11:10:49;5.18;;;3.95;;
77864;SDS011;67061;48.524;9.040;2023-05-09T11:13:17;4.10;;;2.70;;
77864;SDS011;67061;48.524;9.040;2023-05-09T11:18:34;4.95;;;4.30;;
77864;SDS011;67061;48.524;9.040;2023-05-09T11:21:16;5.40;;;4.38;;
77864;SDS011;67061;48.524;9.040;2023-05-09T11:23:47;3.83;;;3.08;;
77864;SDS011;67061;48.524;9.040;2023-05-09T11:26:15;4.85;;;4.40;;
77864;SDS011;67061;48.524;9.040;2023-05-09T11:28:50;5.32;;;3.03;;
77864;SDS011;67061;48.524;9.040;2023-05-09T11:31:19;4.40;;;4.00;;
77864;SDS011;67061;48.524;9.040;2023-05-09T11:33:47;4.40;;;2.72;;
77864;SDS011;67061;48.524;9.040;2023-05-09T11:36:20;4.47;;;3.58;;
77864;SDS011;67061;48.524;9.040;2023-05-09T11:39:02;5.22;;;3.63;;
77864;SDS011;67061;48.524;9.040;2023-05-09T11:41:36;6.63;;;4.22;;
77864;SDS011;67061;48.524;9.040;2023-05-09T11:44:11;4.78;;;3.30;;
77864;SDS011;67061;48.524;9.040;2023-05-09T11:46:42;4.90;;;3.58;;
77864;SDS011;67061;48.524;9.040;2023-05-09T11:49:09;4.55;;;4.00;;
77864;SDS011;67061;48.524;9.040;2023-05-09T11:51:36;5.63;;;4.63;;
77864;SDS011;67061;48.524;9.040;2023-05-09T11:54:05;5.68;;;5.03;;
77864;SDS011;67061;48.524;9.040;2023-05-09T11:56:33;6.03;;;4.68;;
77864;SDS011;67061;48.524;9.040;2023-05-09T11:59:00;6.95;;;5.40;;
77864;SDS011;67061;48.524;9.040;2023-05-09T12:01:27;5.93;;;4.05;;
77864;SDS011;67061;48.524;9.040;2023-05-09T12:03:56;6.28;;;4.88;;
77864;SDS011;67061;48.524;9.040;2023-05-09T12:06:23;5.80;;;3.60;;
77864;SDS011;67061;48.524;9.040;2023-05-09T12:08:50;7.22;;;4.93;;
77864;SDS011;67061;48.524;9.040;2023-05-09T12:11:19;4.90;;;3.40;;
77864;SDS011;67061;48.524;9.040;2023-05-09T12:13:46;5.13;;;2.35;;
77864;SDS011;67061;48.524;9.040;2023-05-09T12:16:15;3.50;;;2.83;;
77864;SDS011;67061;48.524;9.040;2023-05-09T12:18:43;3.72;;;3.33;;
77864;SDS011;67061;48.524;9.040;2023-05-09T12:21:11;3.28;;;2.75;;
77864;SDS011;67061;48.524;9.040;2023-05-09T12:23:38;3.03;;;2.15;;
77864;SDS011;67061;48.524;9.040;2023-05-09T12:26:05;2.95;;;2.05;;
77864;SDS011;67061;48.524;9.040;2023-05-09T12:28:33;2.20;;;1.33;;
77864;SDS011;67061;48.524;9.040;2023-05-09T12:31:01;1.55;;;0.73;;
77864;SDS011;67061;48.524;9.040;2023-05-09T12:33:28;2.38;;;2.17;;
77864;SDS011;67061;48.524;9.040;2023-05-09T12:36:03;3.05;;;1.10;;
77864;SDS011;67061;48.524;9.040;2023-05-09T12:38:31;1.98;;;0.98;;
77864;SDS011;67061;48.524;9.040;2023-05-09T12:40:58;2.17;;;1.17;;
77864;SDS011;67061;48.524;9.040;2023-05-09T12:43:28;3.88;;;2.40;;
77864;SDS011;67061;48.524;9.040;2023-05-09T12:45:57;1.98;;;1.30;;
77864;SDS011;67061;48.524;9.040;2023-05-09T12:48:24;1.90;;;1.30;;
77864;SDS011;67061;48.524;9.040;2023-05-09T12:50:51;4.35;;;2.50;;
77864;SDS011;67061;48.524;9.040;2023-05-09T12:53:22;2.20;;;1.45;;
77864;SDS011;67061;48.524;9.040;2023-05-09T12:55:53;2.85;;;1.45;;
77864;SDS011;67061;48.524;9.040;2023-05-09T12:58:20;3.67;;;1.45;;
77864;SDS011;67061;48.524;9.040;2023-05-09T13:00:47;3.53;;;2.30;;
77864;SDS011;67061;48.524;9.040;2023-05-09T13:03:22;1.98;;;1.13;;
77864;SDS011;67061;48.524;9.040;2023-05-09T13:05:54;3.08;;;2.40;;
77864;SDS011;67061;48.524;9.040;2023-05-09T13:08:22;5.00;;;2.85;;
77864;SDS011;67061;48.524;9.040;2023-05-09T13:10:49;3.25;;;1.90;;
77864;SDS011;67061;48.524;9.040;2023-05-09T13:13:16;4.82;;;2.58;;
77864;SDS011;67061;48.524;9.040;2023-05-09T13:15:44;4.88;;;3.65;;
77864;SDS011;67061;48.524;9.040;2023-05-09T13:18:11;3.55;;;2.67;;
77864;SDS011;67061;48.524;9.040;2023-05-09T13:20:39;3.10;;;2.47;;
77864;SDS011;67061;48.524;9.040;2023-05-09T13:23:06;3.58;;;1.85;;
77864;SDS011;67061;48.524;9.040;2023-05-09T13:25:33;7.63;;;2.75;;
77864;SDS011;67061;48.524;9.040;2023-05-09T13:28:00;3.15;;;2.15;;
77864;SDS011;67061;48.524;9.040;2023-05-09T13:30:27;4.85;;;3.38;;
77864;SDS011;67061;48.524;9.040;2023-05-09T13:32:54;4.15;;;2.60;;
77864;SDS011;67061;48.524;9.040;2023-05-09T13:35:21;3.60;;;2.42;;
77864;SDS011;67061;48.524;9.040;2023-05-09T13:37:50;3.33;;;2.45;;
77864;SDS011;67061;48.524;9.040;2023-05-09T13:40:17;2.70;;;1.40;;
77864;SDS011;67061;48.524;9.040;2023-05-09T13:42:44;3.50;;;2.80;;
77864;SDS011;67061;48.524;9.040;2023-05-09T13:45:12;3.75;;;2.53;;
77864;SDS011;67061;48.524;9.040;2023-05-09T13:47:39;4.10;;;3.03;;
77864;SDS011;67061;48.524;9.040;2023-05-09T13:50:09;6.97;;;3.83;;
77864;SDS011;67061;48.524;9.040;2023-05-09T13:52:36;5.47;;;3.58;;
77864;SDS011;67061;48.524;9.040;2023-05-09T13:55:05;4.43;;;3.60;;
77864;SDS011;67061;48.524;9.040;2023-05-09T13:57:32;5.43;;;3.25;;
77864;SDS011;67061;48.524;9.040;2023-05-09T13:59:59;4.05;;;3.65;;
77864;SDS011;67061;48.524;9.040;2023-05-09T14:02:25;4.20;;;2.80;;
77864;SDS011;67061;48.524;9.040;2023-05-09T14:04:52;2.97;;;2.00;;
77864;SDS011;67061;48.524;9.040;2023-05-09T14:07:19;3.60;;;3.17;;
77864;SDS011;67061;48.524;9.040;2023-05-09T14:09:46;4.70;;;2.55;;
77864;SDS011;67061;48.524;9.040;2023-05-09T14:12:14;4.03;;;2.38;;
77864;SDS011;67061;48.524;9.040;2023-05-09T14:14:41;3.50;;;3.20;;
77864;SDS011;67061;48.524;9.040;2023-05-09T14:17:08;3.58;;;2.10;;
77864;SDS011;67061;48.524;9.040;2023-05-09T14:19:35;3.97;;;2.75;;
77864;SDS011;67061;48.524;9.040;2023-05-09T14:22:02;3.22;;;2.92;;
77864;SDS011;67061;48.524;9.040;2023-05-09T14:24:29;3.17;;;2.88;;
77864;SDS011;67061;48.524;9.040;2023-05-09T14:26:57;4.43;;;4.03;;
77864;SDS011;67061;48.524;9.040;2023-05-09T14:29:25;3.72;;;2.72;;
77864;SDS011;67061;48.524;9.040;2023-05-09T14:31:53;2.53;;;2.08;;
77864;SDS011;67061;48.524;9.040;2023-05-09T14:34:20;7.03;;;2.75;;
77864;SDS011;67061;48.524;9.040;2023-05-09T14:36:47;4.93;;;4.00;;
77864;SDS011;67061;48.524;9.040;2023-05-09T14:39:14;4.60;;;2.15;;
77864;SDS011;67061;48.524;9.040;2023-05-09T14:41:41;3.15;;;2.00;;
77864;SDS011;67061;48.524;9.040;2023-05-09T14:44:08;3.75;;;2.28;;
77864;SDS011;67061;48.524;9.040;2023-05-09T14:46:37;2.70;;;1.80;;
77864;SDS011;67061;48.524;9.040;2023-05-09T14:49:03;5.78;;;3.72;;
77864;SDS011;67061;48.524;9.040;2023-05-09T14:51:31;3.15;;;2.85;;